createdAt,value
2017-12-25T00:00:56.967Z,67.80
2017-12-25T00:03:24.579Z,67.93
2017-12-25T00:05:52.183Z,68.12
2017-12-25T00:08:19.860Z,68.41
2017-12-25T00:10:47.456Z,68.94
2017-12-25T00:13:15.064Z,69.10
2017-12-25T00:15:42.734Z,69.61
2017-12-25T00:18:10.335Z,70.04
2017-12-25T00:20:37.997Z,69.73
2017-12-25T00:23:05.597Z,68.96
2017-12-25T00:25:33.202Z,68.83
2017-12-25T00:28:00.807Z,68.72
2017-12-25T00:30:28.408Z,68.72
2017-12-25T00:32:56.076Z,68.49
2017-12-25T00:35:23.683Z,68.71
2017-12-25T00:37:51.345Z,68.70
2017-12-25T00:40:19.014Z,68.75
2017-12-25T00:42:46.610Z,68.66
2017-12-25T00:45:14.255Z,68.69
2017-12-25T00:47:41.852Z,68.62
2017-12-25T00:50:09.448Z,68.66
2017-12-25T00:52:37.051Z,67.79
2017-12-25T00:55:04.655Z,68.24
2017-12-25T00:57:32.306Z,68.69
2017-12-25T00:59:59.960Z,68.85
2017-12-25T01:02:27.563Z,68.04
2017-12-25T01:04:55.222Z,68.48
2017-12-25T01:07:22.885Z,68.90
2017-12-25T01:09:50.607Z,69.14
2017-12-25T01:12:18.272Z,68.81
2017-12-25T01:14:45.924Z,68.59
2017-12-25T01:17:13.531Z,68.89
2017-12-25T01:19:41.137Z,68.19
2017-12-25T01:22:08.859Z,68.32
2017-12-25T01:24:36.454Z,68.17
2017-12-25T01:27:04.046Z,68.24
2017-12-25T01:29:31.659Z,68.21
2017-12-25T01:31:59.258Z,68.42
2017-12-25T01:34:26.902Z,68.62
2017-12-25T01:36:54.499Z,68.59
2017-12-25T01:39:22.095Z,68.52
2017-12-25T01:41:49.773Z,68.70
2017-12-25T01:44:17.389Z,69.07
2017-12-25T01:49:46.892Z,69.61
2017-12-25T01:52:14.555Z,69.59
2017-12-25T01:54:42.171Z,69.67
2017-12-25T01:57:17.811Z,70.10
2017-12-25T02:00:09.117Z,70.19
2017-12-25T02:02:36.855Z,70.36
2017-12-25T02:08:26.700Z,70.74
2017-12-25T02:10:54.297Z,70.76
2017-12-25T02:13:21.955Z,70.95
2017-12-25T02:15:49.627Z,70.83
2017-12-25T02:18:17.283Z,71.36
2017-12-25T02:20:45.005Z,71.75
2017-12-25T02:23:12.608Z,72.08
2017-12-25T02:25:40.275Z,72.64
2017-12-25T02:28:07.946Z,72.59
2017-12-25T02:30:35.619Z,72.75
2017-12-25T02:33:03.298Z,73.25
2017-12-25T02:35:30.958Z,73.46
2017-12-25T02:37:58.615Z,74.29
2017-12-25T02:40:26.223Z,74.60
2017-12-25T02:42:53.884Z,75.24
2017-12-25T02:45:21.538Z,75.47
2017-12-25T02:47:49.146Z,75.33
2017-12-25T02:50:16.751Z,74.34
2017-12-25T02:52:44.431Z,73.28
2017-12-25T02:55:12.041Z,73.07
2017-12-25T02:57:39.703Z,73.10
2017-12-25T03:00:07.298Z,73.12
2017-12-25T03:02:34.899Z,72.77
2017-12-25T03:05:02.562Z,72.85
2017-12-25T03:07:30.174Z,73.04
2017-12-25T03:09:57.898Z,73.18
2017-12-25T03:12:25.512Z,72.75
2017-12-25T03:14:53.108Z,71.98
2017-12-25T03:17:20.778Z,71.14
2017-12-25T03:19:48.447Z,70.74
2017-12-25T03:22:16.099Z,70.60
2017-12-25T03:24:43.764Z,70.18
2017-12-25T03:27:11.375Z,70.42
2017-12-25T03:29:38.990Z,70.34
2017-12-25T03:32:06.647Z,70.60
2017-12-25T03:34:34.324Z,70.72
2017-12-25T03:37:01.919Z,71.22
2017-12-25T03:39:29.511Z,71.53
2017-12-25T03:41:57.127Z,71.74
2017-12-25T03:44:24.795Z,71.75
2017-12-25T03:46:52.487Z,72.26
2017-12-25T03:49:20.092Z,72.98
2017-12-25T03:51:47.761Z,72.58
2017-12-25T03:54:15.371Z,72.06
2017-12-25T03:56:42.979Z,72.33
2017-12-25T03:59:10.623Z,71.03
2017-12-25T04:01:38.227Z,70.86
2017-12-25T04:04:05.834Z,70.93
2017-12-25T04:06:33.479Z,71.09
2017-12-25T04:09:01.148Z,70.97
2017-12-25T04:11:28.865Z,70.80
2017-12-25T04:13:56.463Z,71.02
2017-12-25T04:16:24.067Z,70.91
2017-12-25T04:18:51.678Z,70.87
2017-12-25T04:21:19.341Z,70.75
2017-12-25T04:23:46.995Z,70.54
2017-12-25T04:26:14.590Z,70.38
2017-12-25T04:28:42.246Z,70.29
2017-12-25T04:31:09.915Z,70.02
2017-12-25T04:33:37.514Z,70.25
2017-12-25T04:36:05.169Z,70.26
2017-12-25T04:38:32.775Z,70.55
2017-12-25T04:41:00.374Z,70.36
2017-12-25T04:43:27.987Z,70.34
2017-12-25T04:45:55.586Z,69.80
2017-12-25T04:48:23.254Z,69.64
2017-12-25T04:50:50.854Z,69.09
2017-12-25T04:53:18.461Z,68.71
2017-12-25T04:55:46.123Z,68.65
2017-12-25T04:58:13.719Z,68.68
2017-12-25T05:00:41.371Z,68.73
2017-12-25T05:03:09.032Z,69.09
2017-12-25T05:05:36.700Z,68.94
2017-12-25T05:08:04.311Z,68.96
2017-12-25T05:10:31.966Z,69.26
2017-12-25T05:12:59.621Z,69.42
2017-12-25T05:15:27.225Z,69.26
2017-12-25T05:17:54.884Z,69.56
2017-12-25T05:20:22.489Z,69.52
2017-12-25T05:22:50.095Z,69.36
2017-12-25T05:25:17.750Z,69.08
2017-12-25T05:27:45.347Z,68.06
2017-12-25T05:30:12.939Z,68.06
2017-12-25T05:32:40.612Z,68.24
2017-12-25T05:35:08.215Z,68.36
2017-12-25T05:37:35.871Z,68.45
2017-12-25T05:40:03.531Z,68.76
2017-12-25T05:42:31.196Z,70.41
2017-12-25T05:44:58.806Z,71.07
2017-12-25T05:47:26.464Z,72.45
2017-12-25T05:49:54.180Z,73.03
2017-12-25T05:52:21.778Z,73.35
2017-12-25T05:54:49.375Z,73.69
2017-12-25T05:57:16.982Z,73.56
2017-12-25T05:59:44.635Z,72.81
2017-12-25T06:02:12.278Z,71.96
2017-12-25T06:04:39.872Z,71.16
2017-12-25T06:07:07.477Z,70.38
2017-12-25T06:09:35.175Z,70.00
2017-12-25T06:12:02.778Z,70.16
2017-12-25T06:14:30.426Z,69.87
2017-12-25T06:16:58.075Z,70.08
2017-12-25T06:19:25.667Z,70.29
2017-12-25T06:21:53.333Z,70.76
2017-12-25T06:24:20.922Z,71.00
2017-12-25T06:26:48.570Z,71.29
2017-12-25T06:29:16.181Z,71.66
2017-12-25T06:31:43.783Z,71.68
2017-12-25T06:34:11.455Z,71.47
2017-12-25T06:36:39.046Z,71.41
2017-12-25T06:39:06.762Z,71.27
2017-12-25T06:41:34.643Z,71.48
2017-12-25T06:44:02.251Z,71.60
2017-12-25T06:46:29.858Z,71.31
2017-12-25T06:48:57.518Z,71.23
2017-12-25T06:51:25.167Z,70.68
2017-12-25T06:53:52.759Z,70.94
2017-12-25T06:56:20.415Z,70.12
2017-12-25T06:58:48.015Z,70.62
2017-12-25T07:01:15.672Z,69.77
2017-12-25T07:03:43.346Z,69.86
2017-12-25T07:06:10.975Z,69.29
2017-12-25T07:08:38.569Z,69.65
2017-12-25T07:11:06.230Z,69.50
2017-12-25T07:13:33.926Z,68.67
2017-12-25T07:16:01.646Z,67.91
2017-12-25T07:18:29.295Z,67.93
2017-12-25T07:20:56.887Z,68.05
2017-12-25T07:23:24.547Z,67.76
2017-12-25T07:25:52.138Z,67.14
2017-12-25T07:28:19.869Z,66.92
2017-12-25T07:30:47.458Z,66.76
2017-12-25T07:33:15.055Z,65.89
2017-12-25T07:35:42.735Z,65.74
2017-12-25T07:38:10.346Z,64.90
2017-12-25T07:40:38.094Z,64.65
2017-12-25T07:43:05.769Z,64.01
2017-12-25T07:45:33.367Z,64.00
2017-12-25T07:48:00.992Z,63.74
2017-12-25T07:50:28.604Z,63.21
2017-12-25T07:52:56.263Z,62.14
2017-12-25T07:55:23.930Z,61.17
2017-12-25T07:57:51.534Z,60.72
2017-12-25T08:00:19.224Z,59.85
2017-12-25T08:02:46.849Z,59.26
2017-12-25T08:05:14.534Z,59.56
2017-12-25T08:07:42.159Z,59.45
2017-12-25T08:10:09.783Z,59.47
2017-12-25T08:12:37.403Z,59.50
2017-12-25T08:15:05.072Z,57.87
2017-12-25T08:17:32.830Z,58.85
2017-12-25T08:20:00.438Z,59.15
2017-12-25T08:22:28.060Z,59.04
2017-12-25T08:24:55.682Z,58.54
2017-12-25T08:27:23.294Z,56.65
2017-12-25T08:29:50.966Z,56.43
2017-12-25T08:32:18.586Z,56.49
2017-12-25T08:34:46.203Z,55.39
2017-12-25T08:37:13.891Z,55.08
2017-12-25T08:39:41.503Z,55.20
2017-12-25T08:42:09.163Z,54.77
2017-12-25T08:44:36.860Z,54.56
2017-12-25T08:47:04.475Z,54.16
2017-12-25T08:49:32.156Z,52.81
2017-12-25T08:51:59.762Z,52.51
2017-12-25T08:54:27.451Z,51.98
2017-12-25T08:56:55.124Z,49.76
2017-12-25T08:59:22.739Z,50.14
2017-12-25T09:01:50.417Z,49.25
2017-12-25T09:04:18.039Z,47.61
2017-12-25T09:06:45.710Z,47.96
2017-12-25T09:09:13.378Z,47.04
2017-12-25T09:11:41.083Z,48.17
2017-12-25T09:14:08.704Z,46.60
2017-12-25T09:16:36.308Z,46.92
2017-12-25T09:19:04.032Z,46.39
2017-12-25T09:21:31.640Z,45.09
2017-12-25T09:23:59.304Z,44.67
2017-12-25T09:26:26.919Z,45.70
2017-12-25T09:28:54.535Z,43.99
2017-12-25T09:31:22.195Z,43.20
2017-12-25T09:33:49.812Z,42.88
2017-12-25T09:36:17.484Z,42.94
2017-12-25T09:38:45.114Z,43.16
2017-12-25T09:41:12.715Z,43.24
2017-12-25T09:43:40.384Z,43.08
2017-12-25T09:46:07.987Z,43.11
2017-12-25T09:48:35.651Z,42.61
2017-12-25T09:51:03.276Z,42.08
2017-12-25T09:53:30.900Z,41.04
2017-12-25T09:55:58.595Z,40.83
2017-12-25T09:58:26.224Z,40.78
2017-12-25T10:00:53.894Z,41.48
2017-12-25T10:03:21.605Z,39.49
2017-12-25T10:05:49.280Z,40.05
2017-12-25T10:08:16.942Z,38.95
2017-12-25T10:10:44.606Z,37.80
2017-12-25T10:13:12.224Z,37.16
2017-12-25T10:15:39.835Z,37.39
2017-12-25T10:18:07.499Z,37.96
2017-12-25T10:20:35.229Z,38.56
2017-12-25T10:23:02.895Z,39.35
2017-12-25T10:25:30.506Z,38.69
2017-12-25T10:27:58.125Z,38.65
2017-12-25T10:30:25.758Z,37.16
2017-12-25T10:32:53.505Z,37.95
2017-12-25T10:35:21.182Z,37.32
2017-12-25T10:37:48.861Z,36.12
2017-12-25T10:40:16.482Z,36.60
2017-12-25T10:42:44.095Z,37.58
2017-12-25T10:45:11.756Z,36.87
2017-12-25T10:47:39.385Z,36.16
2017-12-25T10:50:07.000Z,35.82
2017-12-25T10:52:34.618Z,35.42
2017-12-25T10:55:02.281Z,33.91
2017-12-25T10:57:29.948Z,32.79
2017-12-25T10:59:57.611Z,32.32
2017-12-25T11:02:25.232Z,32.21
2017-12-25T11:04:52.874Z,33.12
2017-12-25T11:07:20.534Z,32.93
2017-12-25T11:09:48.264Z,34.50
2017-12-25T11:12:15.893Z,33.97
2017-12-25T11:14:43.564Z,35.50
2017-12-25T11:17:11.298Z,34.01
2017-12-25T11:19:38.990Z,34.48
2017-12-25T11:22:06.651Z,35.05
2017-12-25T11:24:34.322Z,34.49
2017-12-25T11:27:01.976Z,33.90
2017-12-25T11:29:29.594Z,34.69
2017-12-25T11:31:57.259Z,34.81
2017-12-25T11:34:24.980Z,35.46
2017-12-25T11:36:52.595Z,35.27
2017-12-25T11:39:20.259Z,34.48
2017-12-25T11:41:47.936Z,34.71
2017-12-25T11:44:15.550Z,33.91
2017-12-25T11:46:43.210Z,35.00
2017-12-25T11:49:10.831Z,36.03
2017-12-25T11:51:38.604Z,36.45
2017-12-25T11:54:06.219Z,36.55
2017-12-25T11:56:33.894Z,37.57
2017-12-25T11:59:01.552Z,38.80
2017-12-25T12:01:29.164Z,40.54
2017-12-25T12:03:56.778Z,39.52
2017-12-25T12:06:24.391Z,40.69
2017-12-25T12:08:51.998Z,40.53
2017-12-25T12:11:19.670Z,40.36
2017-12-25T12:13:47.274Z,40.77
2017-12-25T12:16:14.874Z,40.83
2017-12-25T12:18:42.547Z,40.93
2017-12-25T12:21:10.216Z,40.95
2017-12-25T12:23:37.969Z,40.90
2017-12-25T12:26:05.588Z,41.05
2017-12-25T12:28:33.204Z,41.11
2017-12-25T12:31:00.822Z,41.19
2017-12-25T12:33:28.441Z,40.97
2017-12-25T12:35:56.186Z,40.96
2017-12-25T12:38:23.790Z,40.83
2017-12-25T12:40:51.398Z,40.43
2017-12-25T12:43:19.011Z,41.17
2017-12-25T12:45:46.619Z,40.94
2017-12-25T12:48:14.283Z,40.79
2017-12-25T12:50:41.944Z,41.15
2017-12-25T12:53:09.602Z,41.70
2017-12-25T12:55:37.273Z,41.53
2017-12-25T12:58:04.883Z,41.46
2017-12-25T13:00:32.595Z,42.25
2017-12-25T13:03:00.206Z,41.77
2017-12-25T13:05:27.810Z,41.80
2017-12-25T13:07:55.424Z,41.45
2017-12-25T13:10:23.035Z,41.76
2017-12-25T13:12:50.702Z,42.14
2017-12-25T13:15:18.311Z,42.32
2017-12-25T13:17:45.929Z,42.72
2017-12-25T13:20:13.604Z,42.84
2017-12-25T13:22:41.275Z,43.05
2017-12-25T13:25:08.995Z,43.75
2017-12-25T13:27:36.599Z,43.56
2017-12-25T13:30:04.231Z,43.98
2017-12-25T13:32:31.868Z,44.48
2017-12-25T13:34:59.483Z,45.39
2017-12-25T13:37:27.220Z,45.39
2017-12-25T13:39:54.887Z,45.84
2017-12-25T13:42:22.552Z,46.17
2017-12-25T13:44:50.232Z,46.82
2017-12-25T13:47:17.895Z,47.20
2017-12-25T13:49:45.566Z,47.31
2017-12-25T13:52:13.183Z,47.56
2017-12-25T13:54:40.790Z,47.88
2017-12-25T13:57:08.474Z,48.08
2017-12-25T13:59:36.102Z,48.28
2017-12-25T14:02:03.763Z,47.97
2017-12-25T14:04:31.375Z,48.59
2017-12-25T14:06:59.035Z,48.91
2017-12-25T14:09:26.716Z,48.68
2017-12-25T14:11:54.391Z,48.72
2017-12-25T14:14:22.012Z,48.60
2017-12-25T14:16:49.679Z,49.24
2017-12-25T14:19:17.299Z,49.38
2017-12-25T14:21:44.910Z,49.19
2017-12-25T14:24:12.570Z,49.41
2017-12-25T14:26:40.183Z,49.89
2017-12-25T14:29:07.799Z,50.12
2017-12-25T14:31:35.523Z,50.60
2017-12-25T14:34:03.192Z,50.69
2017-12-25T14:36:30.859Z,51.51
2017-12-25T14:38:58.523Z,51.62
2017-12-25T14:41:26.137Z,51.87
2017-12-25T14:43:53.751Z,51.75
2017-12-25T14:46:21.435Z,52.20
2017-12-25T14:48:49.043Z,52.51
2017-12-25T14:51:16.659Z,52.64
2017-12-25T14:53:44.339Z,52.86
2017-12-25T14:56:12.020Z,53.22
2017-12-25T14:58:39.634Z,53.47
2017-12-25T15:01:07.363Z,53.61
2017-12-25T15:03:34.978Z,53.80
2017-12-25T15:06:02.588Z,54.37
2017-12-25T15:08:30.308Z,54.89
2017-12-25T15:10:57.915Z,55.13
2017-12-25T15:13:25.534Z,55.24
2017-12-25T15:15:53.256Z,55.20
2017-12-25T15:18:20.931Z,55.56
2017-12-25T15:20:48.595Z,55.51
2017-12-25T15:23:16.324Z,55.62
2017-12-25T15:25:43.938Z,56.22
2017-12-25T15:28:11.607Z,56.39
2017-12-25T15:30:39.291Z,56.84
2017-12-25T15:33:06.973Z,57.23
2017-12-25T15:35:34.663Z,57.50
2017-12-25T15:38:02.331Z,58.18
2017-12-25T15:40:29.956Z,59.13
2017-12-25T15:42:57.685Z,59.37
2017-12-25T15:45:25.416Z,59.87
2017-12-25T15:47:53.039Z,60.05
2017-12-25T15:50:20.726Z,60.82
2017-12-25T15:52:48.476Z,61.46
2017-12-25T15:55:16.152Z,62.06
2017-12-25T15:57:43.774Z,62.21
2017-12-25T16:00:11.463Z,62.66
2017-12-25T16:02:39.139Z,62.92
2017-12-25T16:05:06.757Z,63.64
2017-12-25T16:07:34.500Z,63.45
2017-12-25T16:10:02.131Z,63.67
2017-12-25T16:12:29.752Z,63.93
2017-12-25T16:14:57.445Z,63.71
2017-12-25T16:17:25.122Z,63.89
2017-12-25T16:19:52.734Z,64.14
2017-12-25T16:22:20.466Z,64.38
2017-12-25T16:24:48.090Z,64.82
2017-12-25T16:27:15.712Z,64.64
2017-12-25T16:29:43.380Z,65.04
2017-12-25T16:32:11.000Z,65.45
2017-12-25T16:34:38.618Z,65.82
2017-12-25T16:37:06.284Z,66.23
2017-12-25T16:39:33.894Z,66.32
2017-12-25T16:42:01.517Z,66.57
2017-12-25T16:44:29.186Z,66.64
2017-12-25T16:46:56.801Z,67.14
2017-12-25T16:49:24.471Z,67.57
2017-12-25T16:51:52.163Z,67.64
2017-12-25T16:54:19.832Z,67.94
2017-12-25T16:56:47.443Z,68.00
2017-12-25T16:59:15.112Z,67.98
2017-12-25T17:01:42.787Z,68.21
2017-12-25T17:04:10.400Z,68.34
2017-12-25T17:06:38.076Z,68.49
2017-12-25T17:09:05.743Z,68.55
2017-12-25T17:11:33.361Z,68.35
2017-12-25T17:14:01.035Z,68.45
2017-12-25T17:16:28.654Z,68.57
2017-12-25T17:18:56.279Z,68.61
2017-12-25T17:21:23.993Z,68.72
2017-12-25T17:23:51.602Z,68.99
2017-12-25T17:26:19.275Z,69.29
2017-12-25T17:28:47.004Z,69.21
2017-12-25T17:31:14.617Z,68.86
2017-12-25T17:33:42.237Z,69.22
2017-12-25T17:36:09.901Z,69.46
2017-12-25T17:38:37.511Z,69.32
2017-12-25T17:41:05.182Z,69.54
2017-12-25T17:43:32.851Z,69.56
2017-12-25T17:46:00.464Z,69.89
2017-12-25T17:48:28.075Z,70.46
2017-12-25T17:50:55.804Z,71.13
2017-12-25T17:53:23.421Z,70.35
2017-12-25T17:55:51.107Z,70.45
2017-12-25T17:58:18.832Z,71.10
2017-12-25T18:00:46.499Z,71.40
2017-12-25T18:03:14.111Z,71.80
2017-12-25T18:05:41.779Z,72.31
2017-12-25T18:08:09.402Z,72.01
2017-12-25T18:10:37.025Z,71.71
2017-12-25T18:13:04.748Z,71.00
2017-12-25T18:15:32.386Z,71.03
2017-12-25T18:18:00.052Z,70.91
2017-12-25T18:20:27.735Z,70.69
2017-12-25T18:22:55.344Z,70.57
2017-12-25T18:25:22.961Z,70.70
2017-12-25T18:27:50.634Z,70.95
2017-12-25T18:30:18.251Z,71.21
2017-12-25T18:32:45.865Z,71.36
2017-12-25T18:35:13.597Z,71.56
2017-12-25T18:37:41.204Z,71.88
2017-12-25T18:40:08.814Z,72.07
2017-12-25T18:42:36.482Z,72.20
2017-12-25T18:45:04.102Z,72.18
2017-12-25T18:47:31.712Z,72.87
2017-12-25T18:49:59.391Z,73.16
2017-12-25T18:52:27.059Z,73.11
2017-12-25T18:54:54.663Z,73.19
2017-12-25T18:57:22.327Z,73.00
2017-12-25T18:59:49.950Z,72.69
2017-12-25T19:02:17.623Z,72.97
2017-12-25T19:04:45.319Z,72.94
2017-12-25T19:07:12.991Z,72.86
2017-12-25T19:09:40.600Z,73.02
2017-12-25T19:12:08.272Z,73.10
2017-12-25T19:14:35.886Z,73.36
2017-12-25T19:17:03.563Z,73.47
2017-12-25T19:19:31.230Z,73.58
2017-12-25T19:21:58.899Z,73.89
2017-12-25T19:24:26.583Z,74.19
2017-12-25T19:26:54.270Z,74.11
2017-12-25T19:29:21.887Z,74.24
2017-12-25T19:31:49.500Z,74.58
2017-12-25T19:34:17.228Z,74.56
2017-12-25T19:36:44.845Z,74.80
2017-12-25T19:39:12.471Z,74.61
2017-12-25T19:41:40.141Z,74.70
2017-12-25T19:44:07.747Z,74.27
2017-12-25T19:46:35.360Z,74.53
2017-12-25T19:49:03.092Z,74.42
2017-12-25T19:51:30.703Z,74.23
2017-12-25T19:53:58.371Z,73.98
2017-12-25T19:56:26.052Z,73.81
2017-12-25T19:58:53.738Z,73.70
2017-12-25T20:01:21.416Z,73.72
2017-12-25T20:03:49.099Z,73.72
2017-12-25T20:06:16.714Z,74.04
2017-12-25T20:08:44.323Z,74.11
2017-12-25T20:11:11.984Z,73.87
2017-12-25T20:13:39.651Z,74.64
2017-12-25T20:16:07.303Z,74.07
2017-12-25T20:18:34.967Z,73.99
2017-12-25T20:21:02.584Z,74.36
2017-12-25T20:23:30.200Z,74.94
2017-12-25T20:25:57.922Z,74.63
2017-12-25T20:28:25.535Z,74.23
2017-12-25T20:30:53.147Z,73.96
2017-12-25T20:33:20.806Z,75.13
2017-12-25T20:35:48.422Z,75.52
2017-12-25T20:38:16.035Z,75.77
2017-12-25T20:40:43.664Z,75.66
2017-12-25T20:43:11.330Z,75.60
2017-12-25T20:45:39.073Z,75.61
2017-12-25T20:48:06.743Z,75.68
2017-12-25T20:50:34.947Z,75.72
2017-12-25T20:53:02.579Z,75.84
2017-12-25T20:55:30.257Z,76.29
2017-12-25T20:57:57.992Z,76.78
2017-12-25T21:00:25.607Z,76.97
2017-12-25T21:02:53.272Z,77.46
2017-12-25T21:05:20.900Z,77.49
2017-12-25T21:07:48.672Z,77.59
2017-12-25T21:10:16.330Z,77.45
2017-12-25T21:12:43.995Z,77.63
2017-12-25T21:15:11.619Z,77.64
2017-12-25T21:17:39.308Z,77.83
2017-12-25T21:20:06.940Z,77.99
2017-12-25T21:22:34.604Z,77.66
2017-12-25T21:25:02.230Z,77.42
2017-12-25T21:27:29.846Z,76.41
2017-12-25T21:29:57.466Z,76.66
2017-12-25T21:32:25.139Z,77.15
2017-12-25T21:34:52.824Z,77.87
2017-12-25T21:37:21.209Z,78.24
2017-12-25T21:39:48.867Z,78.44
2017-12-25T21:42:16.549Z,78.45
2017-12-25T21:44:44.227Z,78.18
2017-12-25T21:47:11.902Z,78.31
2017-12-25T21:49:39.571Z,79.09
2017-12-25T21:52:07.179Z,79.22
2017-12-25T21:54:34.799Z,79.70
2017-12-25T21:57:02.475Z,79.85
2017-12-25T21:59:30.167Z,80.14
2017-12-25T22:01:57.776Z,80.37
2017-12-25T22:04:25.386Z,80.19
2017-12-25T22:06:53.005Z,80.15
2017-12-25T22:09:21.319Z,80.99
2017-12-25T22:11:48.992Z,80.69
2017-12-25T22:14:16.602Z,81.21
2017-12-25T22:16:44.304Z,80.97
2017-12-25T22:19:11.975Z,80.59
2017-12-25T22:21:39.652Z,80.39
2017-12-25T22:24:07.264Z,79.87
2017-12-25T22:26:34.926Z,79.75
2017-12-25T22:29:02.544Z,79.71
2017-12-25T22:31:30.211Z,79.73
2017-12-25T22:33:57.887Z,80.24
2017-12-25T22:36:25.504Z,80.13
2017-12-25T22:38:53.180Z,79.54
2017-12-25T22:41:20.910Z,79.02
2017-12-25T22:43:48.583Z,79.29
2017-12-25T22:46:16.205Z,79.90
2017-12-25T22:48:43.936Z,80.37
2017-12-25T22:51:11.604Z,81.16
2017-12-25T22:53:39.219Z,81.88
2017-12-25T22:56:06.878Z,82.20
2017-12-25T22:58:34.544Z,82.93
2017-12-25T23:01:02.146Z,83.26
2017-12-25T23:03:29.806Z,83.85
2017-12-25T23:05:57.476Z,83.96
2017-12-25T23:08:25.090Z,84.07
2017-12-25T23:10:52.743Z,83.91
2017-12-25T23:13:20.411Z,84.04
2017-12-25T23:15:48.022Z,84.02
2017-12-25T23:18:15.696Z,84.30
2017-12-25T23:20:43.313Z,84.75
2017-12-25T23:23:10.980Z,84.74
2017-12-25T23:25:38.671Z,84.54
2017-12-25T23:28:06.275Z,84.19
2017-12-25T23:30:33.882Z,84.12
2017-12-25T23:33:01.617Z,83.87
2017-12-25T23:35:29.262Z,83.51
2017-12-25T23:37:56.934Z,83.99
2017-12-25T23:40:24.658Z,84.46
2017-12-25T23:42:52.274Z,84.21
2017-12-25T23:45:19.883Z,84.00
2017-12-25T23:47:47.640Z,83.94
2017-12-25T23:50:15.265Z,83.54
2017-12-25T23:52:42.880Z,84.04
2017-12-25T23:55:10.603Z,84.17
2017-12-25T23:57:38.209Z,84.48
